Terminal Aerodrome Forecast
Issued by NWS Nashville, TN

Home | Current Version | Previous Version | Text Only | Print | Product List | Glossary On
Versions: 1 2 3 4 5 6 7 8 9 10 11 12 13 14 15 16 17 18 19 20 21 22 23 24 25 26 27 28 29 30 31 32 33 34 35 36 37
362
FTUS44 KOHX 061739
TAFCSV
TAF
KCSV 061739Z 0618/0718 30008KT P6SM VCSH BKN008 OVC015
      TEMPO 0618/0621 3SM -DZ BR BKN005
     FM062100 28010KT 6SM BR OVC008
     FM070000 32006KT 5SM BR OVC005
     FM071200 36004KT P6SM BKN010 BKN100=

USA.gov is the U.S. government's official web portal to all federal, state and local government web resources and services.